sensor_id;sensor_type;location;lat;lon;timestamp;P1;durP1;ratioP1;P2;durP2;ratioP2
6053;SDS011;3055;50.886;14.814;2022-09-09T00:01:19;3.67;;;3.37;;
6053;SDS011;3055;50.886;14.814;2022-09-09T00:04:00;3.70;;;3.37;;
6053;SDS011;3055;50.886;14.814;2022-09-09T00:06:32;3.57;;;3.27;;
6053;SDS011;3055;50.886;14.814;2022-09-09T00:09:02;3.73;;;3.30;;
6053;SDS011;3055;50.886;14.814;2022-09-09T00:11:40;3.67;;;3.37;;
6053;SDS011;3055;50.886;14.814;2022-09-09T00:14:12;3.10;;;2.90;;
6053;SDS011;3055;50.886;14.814;2022-09-09T00:16:46;3.00;;;2.80;;
6053;SDS011;3055;50.886;14.814;2022-09-09T00:19:19;3.40;;;2.97;;
6053;SDS011;3055;50.886;14.814;2022-09-09T00:21:53;3.90;;;2.90;;
6053;SDS011;3055;50.886;14.814;2022-09-09T00:24:32;3.37;;;3.17;;
6053;SDS011;3055;50.886;14.814;2022-09-09T00:27:06;3.93;;;3.63;;
6053;SDS011;3055;50.886;14.814;2022-09-09T00:29:40;4.03;;;2.97;;
6053;SDS011;3055;50.886;14.814;2022-09-09T00:32:12;3.37;;;2.90;;
6053;SDS011;3055;50.886;14.814;2022-09-09T00:34:47;3.27;;;3.07;;
6053;SDS011;3055;50.886;14.814;2022-09-09T00:37:16;3.60;;;3.30;;
6053;SDS011;3055;50.886;14.814;2022-09-09T00:39:45;3.93;;;3.10;;
6053;SDS011;3055;50.886;14.814;2022-09-09T00:42:14;3.17;;;2.87;;
6053;SDS011;3055;50.886;14.814;2022-09-09T00:44:53;3.43;;;3.13;;
6053;SDS011;3055;50.886;14.814;2022-09-09T00:50:21;3.07;;;2.77;;
6053;SDS011;3055;50.886;14.814;2022-09-09T00:53:08;4.13;;;2.83;;
6053;SDS011;3055;50.886;14.814;2022-09-09T00:55:49;2.60;;;2.40;;
6053;SDS011;3055;50.886;14.814;2022-09-09T00:58:24;3.03;;;2.83;;
6053;SDS011;3055;50.886;14.814;2022-09-09T01:00:53;3.33;;;3.10;;
6053;SDS011;3055;50.886;14.814;2022-09-09T01:03:26;4.10;;;3.00;;
6053;SDS011;3055;50.886;14.814;2022-09-09T01:06:12;3.70;;;2.97;;
6053;SDS011;3055;50.886;14.814;2022-09-09T01:08:52;3.83;;;3.53;;
6053;SDS011;3055;50.886;14.814;2022-09-09T01:11:41;3.63;;;3.33;;
6053;SDS011;3055;50.886;14.814;2022-09-09T01:14:19;3.40;;;3.10;;
6053;SDS011;3055;50.886;14.814;2022-09-09T01:16:56;3.30;;;2.87;;
6053;SDS011;3055;50.886;14.814;2022-09-09T01:19:31;3.57;;;3.37;;
6053;SDS011;3055;50.886;14.814;2022-09-09T01:22:09;4.10;;;3.30;;
6053;SDS011;3055;50.886;14.814;2022-09-09T01:24:43;3.67;;;3.37;;
6053;SDS011;3055;50.886;14.814;2022-09-09T01:27:22;5.67;;;3.30;;
6053;SDS011;3055;50.886;14.814;2022-09-09T01:29:50;3.40;;;3.10;;
6053;SDS011;3055;50.886;14.814;2022-09-09T01:35:05;3.40;;;3.10;;
6053;SDS011;3055;50.886;14.814;2022-09-09T01:37:36;2.83;;;2.60;;
6053;SDS011;3055;50.886;14.814;2022-09-09T01:40:03;3.00;;;2.73;;
6053;SDS011;3055;50.886;14.814;2022-09-09T01:42:32;2.90;;;2.63;;
6053;SDS011;3055;50.886;14.814;2022-09-09T01:44:59;3.10;;;2.90;;
6053;SDS011;3055;50.886;14.814;2022-09-09T01:47:26;3.07;;;2.87;;
6053;SDS011;3055;50.886;14.814;2022-09-09T01:49:53;4.33;;;3.37;;
6053;SDS011;3055;50.886;14.814;2022-09-09T01:52:20;3.30;;;3.00;;
6053;SDS011;3055;50.886;14.814;2022-09-09T01:54:47;4.17;;;3.30;;
6053;SDS011;3055;50.886;14.814;2022-09-09T01:57:15;3.57;;;2.93;;
6053;SDS011;3055;50.886;14.814;2022-09-09T01:59:54;3.23;;;3.03;;
6053;SDS011;3055;50.886;14.814;2022-09-09T02:02:30;4.83;;;2.87;;
6053;SDS011;3055;50.886;14.814;2022-09-09T02:05:05;2.83;;;2.63;;
6053;SDS011;3055;50.886;14.814;2022-09-09T02:07:38;3.40;;;3.20;;
6053;SDS011;3055;50.886;14.814;2022-09-09T02:10:09;3.57;;;3.23;;
6053;SDS011;3055;50.886;14.814;2022-09-09T02:12:43;3.47;;;3.27;;
6053;SDS011;3055;50.886;14.814;2022-09-09T02:15:16;3.77;;;3.43;;
6053;SDS011;3055;50.886;14.814;2022-09-09T02:17:48;3.70;;;3.50;;
6053;SDS011;3055;50.886;14.814;2022-09-09T02:20:18;3.77;;;3.47;;
6053;SDS011;3055;50.886;14.814;2022-09-09T02:22:47;4.90;;;3.10;;
6053;SDS011;3055;50.886;14.814;2022-09-09T02:25:18;3.90;;;2.80;;
6053;SDS011;3055;50.886;14.814;2022-09-09T02:27:47;3.00;;;2.80;;
6053;SDS011;3055;50.886;14.814;2022-09-09T02:30:18;3.27;;;3.00;;
6053;SDS011;3055;50.886;14.814;2022-09-09T02:32:47;4.50;;;3.10;;
6053;SDS011;3055;50.886;14.814;2022-09-09T02:35:17;3.47;;;3.27;;
6053;SDS011;3055;50.886;14.814;2022-09-09T02:37:49;3.10;;;2.90;;
6053;SDS011;3055;50.886;14.814;2022-09-09T02:40:19;3.20;;;3.00;;
6053;SDS011;3055;50.886;14.814;2022-09-09T02:42:47;4.13;;;3.30;;
6053;SDS011;3055;50.886;14.814;2022-09-09T02:45:15;3.13;;;2.93;;
6053;SDS011;3055;50.886;14.814;2022-09-09T02:47:47;3.50;;;3.20;;
6053;SDS011;3055;50.886;14.814;2022-09-09T02:50:21;3.30;;;3.00;;
6053;SDS011;3055;50.886;14.814;2022-09-09T02:52:55;4.20;;;3.03;;
6053;SDS011;3055;50.886;14.814;2022-09-09T02:55:36;3.30;;;3.10;;
6053;SDS011;3055;50.886;14.814;2022-09-09T02:58:06;3.83;;;3.47;;
6053;SDS011;3055;50.886;14.814;2022-09-09T03:00:37;3.30;;;3.00;;
6053;SDS011;3055;50.886;14.814;2022-09-09T03:03:06;3.60;;;3.30;;
6053;SDS011;3055;50.886;14.814;2022-09-09T03:05:33;4.07;;;2.97;;
6053;SDS011;3055;50.886;14.814;2022-09-09T03:08:00;2.93;;;2.73;;
6053;SDS011;3055;50.886;14.814;2022-09-09T03:10:28;3.73;;;3.43;;
6053;SDS011;3055;50.886;14.814;2022-09-09T03:12:55;4.07;;;3.67;;
6053;SDS011;3055;50.886;14.814;2022-09-09T03:15:22;3.47;;;3.27;;
6053;SDS011;3055;50.886;14.814;2022-09-09T03:17:51;3.30;;;3.10;;
6053;SDS011;3055;50.886;14.814;2022-09-09T03:20:18;3.13;;;2.83;;
6053;SDS011;3055;50.886;14.814;2022-09-09T03:22:45;2.90;;;2.70;;
6053;SDS011;3055;50.886;14.814;2022-09-09T03:25:12;3.37;;;3.10;;
6053;SDS011;3055;50.886;14.814;2022-09-09T03:27:39;3.20;;;2.83;;
6053;SDS011;3055;50.886;14.814;2022-09-09T03:30:06;3.00;;;2.80;;
6053;SDS011;3055;50.886;14.814;2022-09-09T03:32:34;3.33;;;3.03;;
6053;SDS011;3055;50.886;14.814;2022-09-09T03:35:02;3.00;;;2.80;;
6053;SDS011;3055;50.886;14.814;2022-09-09T03:37:30;3.27;;;2.97;;
6053;SDS011;3055;50.886;14.814;2022-09-09T03:39:57;3.30;;;3.00;;
6053;SDS011;3055;50.886;14.814;2022-09-09T03:42:24;3.10;;;2.80;;
6053;SDS011;3055;50.886;14.814;2022-09-09T03:44:52;3.90;;;3.20;;
6053;SDS011;3055;50.886;14.814;2022-09-09T03:47:20;3.63;;;3.10;;
6053;SDS011;3055;50.886;14.814;2022-09-09T03:49:47;3.10;;;2.90;;
6053;SDS011;3055;50.886;14.814;2022-09-09T03:52:16;3.63;;;2.70;;
6053;SDS011;3055;50.886;14.814;2022-09-09T03:54:43;3.13;;;2.83;;
6053;SDS011;3055;50.886;14.814;2022-09-09T03:57:10;4.97;;;2.60;;
6053;SDS011;3055;50.886;14.814;2022-09-09T03:59:38;3.00;;;2.80;;
6053;SDS011;3055;50.886;14.814;2022-09-09T04:02:05;3.30;;;3.00;;
6053;SDS011;3055;50.886;14.814;2022-09-09T04:04:32;4.33;;;3.07;;
6053;SDS011;3055;50.886;14.814;2022-09-09T04:07:00;3.30;;;3.00;;
6053;SDS011;3055;50.886;14.814;2022-09-09T04:09:29;3.13;;;2.87;;
6053;SDS011;3055;50.886;14.814;2022-09-09T04:11:56;5.03;;;3.10;;
6053;SDS011;3055;50.886;14.814;2022-09-09T04:14:23;3.53;;;3.23;;
6053;SDS011;3055;50.886;14.814;2022-09-09T04:16:53;2.80;;;2.60;;
6053;SDS011;3055;50.886;14.814;2022-09-09T04:19:22;3.37;;;3.07;;
6053;SDS011;3055;50.886;14.814;2022-09-09T04:21:49;3.30;;;3.00;;
6053;SDS011;3055;50.886;14.814;2022-09-09T04:24:18;3.20;;;3.00;;
6053;SDS011;3055;50.886;14.814;2022-09-09T04:26:46;4.37;;;3.10;;
6053;SDS011;3055;50.886;14.814;2022-09-09T04:29:14;3.73;;;3.20;;
6053;SDS011;3055;50.886;14.814;2022-09-09T04:31:41;3.50;;;3.30;;
6053;SDS011;3055;50.886;14.814;2022-09-09T04:34:09;3.60;;;3.30;;
6053;SDS011;3055;50.886;14.814;2022-09-09T04:36:37;3.50;;;3.20;;
6053;SDS011;3055;50.886;14.814;2022-09-09T04:39:05;4.67;;;3.33;;
6053;SDS011;3055;50.886;14.814;2022-09-09T04:41:32;3.30;;;3.00;;
6053;SDS011;3055;50.886;14.814;2022-09-09T04:44:01;3.60;;;3.30;;
6053;SDS011;3055;50.886;14.814;2022-09-09T04:46:28;3.87;;;3.57;;
6053;SDS011;3055;50.886;14.814;2022-09-09T04:48:55;4.07;;;3.33;;
6053;SDS011;3055;50.886;14.814;2022-09-09T04:51:22;5.87;;;3.73;;
6053;SDS011;3055;50.886;14.814;2022-09-09T04:53:49;4.43;;;3.30;;
6053;SDS011;3055;50.886;14.814;2022-09-09T04:56:18;4.37;;;3.97;;
6053;SDS011;3055;50.886;14.814;2022-09-09T04:58:45;5.47;;;4.20;;
6053;SDS011;3055;50.886;14.814;2022-09-09T05:01:15;5.97;;;3.70;;
6053;SDS011;3055;50.886;14.814;2022-09-09T05:03:43;6.47;;;3.90;;
6053;SDS011;3055;50.886;14.814;2022-09-09T05:06:11;4.53;;;3.73;;
6053;SDS011;3055;50.886;14.814;2022-09-09T05:08:42;4.73;;;3.70;;
6053;SDS011;3055;50.886;14.814;2022-09-09T05:11:13;4.03;;;3.40;;
6053;SDS011;3055;50.886;14.814;2022-09-09T05:13:42;4.30;;;3.90;;
6053;SDS011;3055;50.886;14.814;2022-09-09T05:16:09;5.77;;;3.83;;
6053;SDS011;3055;50.886;14.814;2022-09-09T05:18:38;3.37;;;2.87;;
6053;SDS011;3055;50.886;14.814;2022-09-09T05:21:05;4.63;;;3.40;;
6053;SDS011;3055;50.886;14.814;2022-09-09T05:23:32;4.60;;;2.83;;
6053;SDS011;3055;50.886;14.814;2022-09-09T05:26:00;3.00;;;2.70;;
6053;SDS011;3055;50.886;14.814;2022-09-09T05:28:27;3.87;;;2.60;;
6053;SDS011;3055;50.886;14.814;2022-09-09T05:30:58;3.43;;;3.00;;
6053;SDS011;3055;50.886;14.814;2022-09-09T05:33:28;3.33;;;3.10;;
6053;SDS011;3055;50.886;14.814;2022-09-09T05:35:58;3.20;;;2.90;;
6053;SDS011;3055;50.886;14.814;2022-09-09T05:38:26;4.03;;;2.80;;
6053;SDS011;3055;50.886;14.814;2022-09-09T05:40:54;4.00;;;2.90;;
6053;SDS011;3055;50.886;14.814;2022-09-09T05:43:21;5.03;;;3.23;;
6053;SDS011;3055;50.886;14.814;2022-09-09T05:45:57;4.47;;;3.40;;
6053;SDS011;3055;50.886;14.814;2022-09-09T05:48:27;5.30;;;4.40;;
6053;SDS011;3055;50.886;14.814;2022-09-09T05:50:54;6.00;;;4.33;;
6053;SDS011;3055;50.886;14.814;2022-09-09T05:53:23;4.57;;;4.17;;
6053;SDS011;3055;50.886;14.814;2022-09-09T05:55:50;4.77;;;3.60;;
6053;SDS011;3055;50.886;14.814;2022-09-09T05:58:17;5.20;;;4.13;;
6053;SDS011;3055;50.886;14.814;2022-09-09T06:00:44;4.07;;;3.70;;
6053;SDS011;3055;50.886;14.814;2022-09-09T06:03:11;5.93;;;4.20;;
6053;SDS011;3055;50.886;14.814;2022-09-09T06:05:38;3.63;;;3.33;;
6053;SDS011;3055;50.886;14.814;2022-09-09T06:08:05;4.93;;;3.60;;
6053;SDS011;3055;50.886;14.814;2022-09-09T06:10:34;4.17;;;2.60;;
6053;SDS011;3055;50.886;14.814;2022-09-09T06:13:01;4.37;;;2.80;;
6053;SDS011;3055;50.886;14.814;2022-09-09T06:15:28;3.13;;;2.53;;
6053;SDS011;3055;50.886;14.814;2022-09-09T06:17:55;3.10;;;2.50;;
6053;SDS011;3055;50.886;14.814;2022-09-09T06:20:22;3.77;;;2.40;;
6053;SDS011;3055;50.886;14.814;2022-09-09T06:22:49;3.83;;;3.27;;
6053;SDS011;3055;50.886;14.814;2022-09-09T06:25:16;4.03;;;3.40;;
6053;SDS011;3055;50.886;14.814;2022-09-09T06:27:49;4.97;;;3.40;;
6053;SDS011;3055;50.886;14.814;2022-09-09T06:30:16;5.47;;;3.63;;
6053;SDS011;3055;50.886;14.814;2022-09-09T06:32:43;4.50;;;3.20;;
6053;SDS011;3055;50.886;14.814;2022-09-09T06:35:10;4.53;;;4.13;;
6053;SDS011;3055;50.886;14.814;2022-09-09T06:37:38;5.77;;;5.10;;
6053;SDS011;3055;50.886;14.814;2022-09-09T06:40:05;4.20;;;3.80;;
6053;SDS011;3055;50.886;14.814;2022-09-09T06:42:33;4.23;;;3.70;;
6053;SDS011;3055;50.886;14.814;2022-09-09T06:45:01;4.30;;;3.90;;
6053;SDS011;3055;50.886;14.814;2022-09-09T06:47:29;5.43;;;4.73;;
6053;SDS011;3055;50.886;14.814;2022-09-09T06:49:56;4.90;;;4.50;;
6053;SDS011;3055;50.886;14.814;2022-09-09T06:52:23;5.37;;;4.43;;
6053;SDS011;3055;50.886;14.814;2022-09-09T06:54:50;5.50;;;4.67;;
6053;SDS011;3055;50.886;14.814;2022-09-09T06:57:18;4.80;;;4.40;;
6053;SDS011;3055;50.886;14.814;2022-09-09T06:59:45;6.27;;;5.67;;
6053;SDS011;3055;50.886;14.814;2022-09-09T07:02:14;6.57;;;5.63;;
6053;SDS011;3055;50.886;14.814;2022-09-09T07:04:40;6.47;;;5.97;;
6053;SDS011;3055;50.886;14.814;2022-09-09T07:07:08;6.97;;;6.37;;
6053;SDS011;3055;50.886;14.814;2022-09-09T07:09:37;6.47;;;5.87;;
6053;SDS011;3055;50.886;14.814;2022-09-09T07:12:05;7.50;;;6.60;;
6053;SDS011;3055;50.886;14.814;2022-09-09T07:14:32;7.40;;;6.73;;
6053;SDS011;3055;50.886;14.814;2022-09-09T07:16:59;7.60;;;7.00;;
6053;SDS011;3055;50.886;14.814;2022-09-09T07:19:30;8.57;;;7.60;;
6053;SDS011;3055;50.886;14.814;2022-09-09T07:21:57;8.57;;;7.20;;
6053;SDS011;3055;50.886;14.814;2022-09-09T07:24:23;8.00;;;6.53;;
6053;SDS011;3055;50.886;14.814;2022-09-09T07:26:55;7.30;;;6.60;;
6053;SDS011;3055;50.886;14.814;2022-09-09T07:29:22;8.67;;;7.43;;
6053;SDS011;3055;50.886;14.814;2022-09-09T07:31:49;8.03;;;7.10;;
6053;SDS011;3055;50.886;14.814;2022-09-09T07:34:16;7.90;;;6.80;;
6053;SDS011;3055;50.886;14.814;2022-09-09T07:36:46;9.40;;;6.87;;
6053;SDS011;3055;50.886;14.814;2022-09-09T07:39:14;8.00;;;7.20;;
6053;SDS011;3055;50.886;14.814;2022-09-09T07:41:43;7.60;;;6.73;;
6053;SDS011;3055;50.886;14.814;2022-09-09T07:44:11;7.40;;;6.60;;
6053;SDS011;3055;50.886;14.814;2022-09-09T07:46:39;7.03;;;5.90;;
6053;SDS011;3055;50.886;14.814;2022-09-09T07:49:06;7.33;;;5.77;;
6053;SDS011;3055;50.886;14.814;2022-09-09T07:51:35;7.97;;;6.27;;
6053;SDS011;3055;50.886;14.814;2022-09-09T07:54:06;5.80;;;5.30;;
6053;SDS011;3055;50.886;14.814;2022-09-09T07:56:34;7.33;;;5.63;;
6053;SDS011;3055;50.886;14.814;2022-09-09T07:59:02;6.77;;;5.67;;
6053;SDS011;3055;50.886;14.814;2022-09-09T08:01:31;6.80;;;6.20;;
6053;SDS011;3055;50.886;14.814;2022-09-09T08:04:03;5.97;;;5.47;;
6053;SDS011;3055;50.886;14.814;2022-09-09T08:06:32;6.00;;;5.40;;
6053;SDS011;3055;50.886;14.814;2022-09-09T08:09:02;5.63;;;5.07;;
6053;SDS011;3055;50.886;14.814;2022-09-09T08:11:31;5.20;;;4.70;;
6053;SDS011;3055;50.886;14.814;2022-09-09T08:13:59;5.57;;;4.57;;
6053;SDS011;3055;50.886;14.814;2022-09-09T08:16:26;4.87;;;4.10;;
6053;SDS011;3055;50.886;14.814;2022-09-09T08:18:55;5.27;;;4.30;;
6053;SDS011;3055;50.886;14.814;2022-09-09T08:21:23;4.57;;;4.23;;
6053;SDS011;3055;50.886;14.814;2022-09-09T08:23:52;5.03;;;4.60;;
6053;SDS011;3055;50.886;14.814;2022-09-09T08:26:21;4.67;;;4.27;;
6053;SDS011;3055;50.886;14.814;2022-09-09T08:28:49;5.20;;;4.17;;
6053;SDS011;3055;50.886;14.814;2022-09-09T08:31:18;4.73;;;4.33;;
6053;SDS011;3055;50.886;14.814;2022-09-09T08:33:46;7.57;;;4.70;;
6053;SDS011;3055;50.886;14.814;2022-09-09T08:36:14;5.23;;;4.47;;
6053;SDS011;3055;50.886;14.814;2022-09-09T08:38:43;4.50;;;3.80;;
6053;SDS011;3055;50.886;14.814;2022-09-09T08:44:22;4.23;;;3.90;;
6053;SDS011;3055;50.886;14.814;2022-09-09T08:46:59;5.00;;;3.80;;
6053;SDS011;3055;50.886;14.814;2022-09-09T08:49:41;4.93;;;3.63;;
6053;SDS011;3055;50.886;14.814;2022-09-09T08:52:25;4.80;;;3.70;;
6053;SDS011;3055;50.886;14.814;2022-09-09T08:54:55;3.83;;;3.43;;
6053;SDS011;3055;50.886;14.814;2022-09-09T08:57:29;3.60;;;3.30;;
6053;SDS011;3055;50.886;14.814;2022-09-09T08:59:58;3.47;;;3.07;;
6053;SDS011;3055;50.886;14.814;2022-09-09T09:02:25;3.97;;;3.20;;
6053;SDS011;3055;50.886;14.814;2022-09-09T09:05:03;4.07;;;2.87;;
6053;SDS011;3055;50.886;14.814;2022-09-09T09:07:45;4.10;;;2.93;;
6053;SDS011;3055;50.886;14.814;2022-09-09T09:10:21;2.63;;;2.40;;
6053;SDS011;3055;50.886;14.814;2022-09-09T09:13:02;4.10;;;3.00;;
6053;SDS011;3055;50.886;14.814;2022-09-09T09:15:30;4.10;;;2.67;;
6053;SDS011;3055;50.886;14.814;2022-09-09T09:18:01;3.60;;;2.73;;
6053;SDS011;3055;50.886;14.814;2022-09-09T09:20:30;2.87;;;2.50;;
6053;SDS011;3055;50.886;14.814;2022-09-09T09:23:09;4.57;;;2.93;;
6053;SDS011;3055;50.886;14.814;2022-09-09T09:25:45;3.97;;;2.70;;
6053;SDS011;3055;50.886;14.814;2022-09-09T09:28:15;2.80;;;2.60;;
6053;SDS011;3055;50.886;14.814;2022-09-09T09:30:44;4.67;;;2.67;;
6053;SDS011;3055;50.886;14.814;2022-09-09T09:33:17;2.33;;;2.13;;
6053;SDS011;3055;50.886;14.814;2022-09-09T09:35:48;3.00;;;2.70;;
6053;SDS011;3055;50.886;14.814;2022-09-09T09:38:17;3.93;;;2.37;;
6053;SDS011;3055;50.886;14.814;2022-09-09T09:40:48;5.83;;;2.30;;
6053;SDS011;3055;50.886;14.814;2022-09-09T09:43:20;6.33;;;2.43;;
6053;SDS011;3055;50.886;14.814;2022-09-09T09:45:50;3.23;;;2.20;;
6053;SDS011;3055;50.886;14.814;2022-09-09T09:48:16;2.80;;;2.13;;
6053;SDS011;3055;50.886;14.814;2022-09-09T09:50:46;3.23;;;2.00;;
6053;SDS011;3055;50.886;14.814;2022-09-09T09:53:18;3.33;;;2.10;;
6053;SDS011;3055;50.886;14.814;2022-09-09T09:55:52;2.73;;;1.80;;
6053;SDS011;3055;50.886;14.814;2022-09-09T09:58:23;4.43;;;2.10;;
6053;SDS011;3055;50.886;14.814;2022-09-09T10:00:53;2.40;;;1.87;;
6053;SDS011;3055;50.886;14.814;2022-09-09T10:03:21;4.30;;;2.00;;
6053;SDS011;3055;50.886;14.814;2022-09-09T10:05:53;3.57;;;1.73;;
6053;SDS011;3055;50.886;14.814;2022-09-09T10:08:22;3.37;;;1.77;;
6053;SDS011;3055;50.886;14.814;2022-09-09T10:10:55;1.70;;;1.60;;
6053;SDS011;3055;50.886;14.814;2022-09-09T10:13:33;2.37;;;1.40;;
6053;SDS011;3055;50.886;14.814;2022-09-09T10:16:13;4.80;;;1.83;;
6053;SDS011;3055;50.886;14.814;2022-09-09T10:18:55;3.57;;;2.00;;
6053;SDS011;3055;50.886;14.814;2022-09-09T10:21:32;2.70;;;1.70;;
6053;SDS011;3055;50.886;14.814;2022-09-09T10:27:30;3.93;;;1.90;;
6053;SDS011;3055;50.886;14.814;2022-09-09T10:30:09;5.20;;;1.70;;
6053;SDS011;3055;50.886;14.814;2022-09-09T10:32:45;3.83;;;1.63;;
6053;SDS011;3055;50.886;14.814;2022-09-09T10:35:26;1.40;;;1.30;;
6053;SDS011;3055;50.886;14.814;2022-09-09T10:38:01;2.10;;;1.57;;
6053;SDS011;3055;50.886;14.814;2022-09-09T10:43:36;1.63;;;1.40;;
6053;SDS011;3055;50.886;14.814;2022-09-09T10:46:22;3.20;;;1.60;;
6053;SDS011;3055;50.886;14.814;2022-09-09T10:48:59;3.07;;;1.63;;
6053;SDS011;3055;50.886;14.814;2022-09-09T10:51:36;6.90;;;1.60;;
6053;SDS011;3055;50.886;14.814;2022-09-09T10:54:12;3.77;;;1.70;;
6053;SDS011;3055;50.886;14.814;2022-09-09T10:56:48;1.30;;;1.20;;
6053;SDS011;3055;50.886;14.814;2022-09-09T10:59:23;2.03;;;1.30;;
6053;SDS011;3055;50.886;14.814;2022-09-09T11:01:54;1.43;;;1.13;;
6053;SDS011;3055;50.886;14.814;2022-09-09T11:04:27;2.63;;;1.70;;
6053;SDS011;3055;50.886;14.814;2022-09-09T11:06:57;3.00;;;1.70;;
6053;SDS011;3055;50.886;14.814;2022-09-09T11:09:30;1.97;;;1.53;;
6053;SDS011;3055;50.886;14.814;2022-09-09T11:12:01;3.63;;;1.40;;
6053;SDS011;3055;50.886;14.814;2022-09-09T11:14:29;2.87;;;1.20;;
6053;SDS011;3055;50.886;14.814;2022-09-09T11:17:03;5.00;;;1.60;;
6053;SDS011;3055;50.886;14.814;2022-09-09T11:19:36;3.13;;;1.60;;
6053;SDS011;3055;50.886;14.814;2022-09-09T11:22:06;2.43;;;1.40;;
6053;SDS011;3055;50.886;14.814;2022-09-09T11:24:41;2.10;;;1.30;;
6053;SDS011;3055;50.886;14.814;2022-09-09T11:27:14;3.57;;;1.60;;
6053;SDS011;3055;50.886;14.814;2022-09-09T11:30:10;2.13;;;1.50;;
6053;SDS011;3055;50.886;14.814;2022-09-09T11:35:49;2.67;;;1.20;;
6053;SDS011;3055;50.886;14.814;2022-09-09T11:38:28;4.63;;;1.20;;
6053;SDS011;3055;50.886;14.814;2022-09-09T11:40:58;3.77;;;1.30;;
6053;SDS011;3055;50.886;14.814;2022-09-09T11:43:28;3.83;;;1.27;;
6053;SDS011;3055;50.886;14.814;2022-09-09T11:45:58;2.70;;;1.50;;
6053;SDS011;3055;50.886;14.814;2022-09-09T11:48:37;2.60;;;1.63;;
6053;SDS011;3055;50.886;14.814;2022-09-09T11:51:10;3.17;;;1.37;;
6053;SDS011;3055;50.886;14.814;2022-09-09T11:53:47;2.37;;;1.20;;
6053;SDS011;3055;50.886;14.814;2022-09-09T11:56:24;2.50;;;1.20;;
6053;SDS011;3055;50.886;14.814;2022-09-09T11:59:00;2.53;;;1.27;;
6053;SDS011;3055;50.886;14.814;2022-09-09T12:01:30;3.07;;;1.03;;
6053;SDS011;3055;50.886;14.814;2022-09-09T12:04:10;4.20;;;1.30;;
6053;SDS011;3055;50.886;14.814;2022-09-09T12:06:56;2.50;;;1.30;;
6053;SDS011;3055;50.886;14.814;2022-09-09T12:09:27;1.80;;;0.90;;
6053;SDS011;3055;50.886;14.814;2022-09-09T12:12:05;4.40;;;1.30;;
6053;SDS011;3055;50.886;14.814;2022-09-09T12:14:36;2.33;;;1.20;;
6053;SDS011;3055;50.886;14.814;2022-09-09T12:17:17;3.17;;;1.40;;
6053;SDS011;3055;50.886;14.814;2022-09-09T12:19:46;2.77;;;1.00;;
6053;SDS011;3055;50.886;14.814;2022-09-09T12:22:18;2.20;;;1.20;;
6053;SDS011;3055;50.886;14.814;2022-09-09T12:24:53;1.63;;;1.00;;
6053;SDS011;3055;50.886;14.814;2022-09-09T12:27:26;2.07;;;1.30;;
6053;SDS011;3055;50.886;14.814;2022-09-09T12:30:00;2.50;;;0.93;;
6053;SDS011;3055;50.886;14.814;2022-09-09T12:32:29;2.13;;;1.13;;
6053;SDS011;3055;50.886;14.814;2022-09-09T12:34:57;3.93;;;1.20;;
6053;SDS011;3055;50.886;14.814;2022-09-09T12:37:29;3.13;;;1.10;;
6053;SDS011;3055;50.886;14.814;2022-09-09T12:40:00;1.60;;;0.80;;
6053;SDS011;3055;50.886;14.814;2022-09-09T12:42:29;1.87;;;1.00;;
6053;SDS011;3055;50.886;14.814;2022-09-09T12:44:58;3.50;;;1.00;;
6053;SDS011;3055;50.886;14.814;2022-09-09T12:47:33;2.20;;;0.97;;
6053;SDS011;3055;50.886;14.814;2022-09-09T12:50:10;2.67;;;1.13;;
6053;SDS011;3055;50.886;14.814;2022-09-09T12:52:45;2.57;;;1.10;;
6053;SDS011;3055;50.886;14.814;2022-09-09T12:55:16;3.13;;;1.10;;
6053;SDS011;3055;50.886;14.814;2022-09-09T12:57:45;4.97;;;1.50;;
6053;SDS011;3055;50.886;14.814;2022-09-09T13:00:16;1.90;;;1.10;;
6053;SDS011;3055;50.886;14.814;2022-09-09T13:02:46;3.53;;;1.03;;
6053;SDS011;3055;50.886;14.814;2022-09-09T13:05:16;3.07;;;1.27;;
6053;SDS011;3055;50.886;14.814;2022-09-09T13:07:46;2.27;;;1.00;;
6053;SDS011;3055;50.886;14.814;2022-09-09T13:10:14;2.53;;;1.20;;
6053;SDS011;3055;50.886;14.814;2022-09-09T13:12:47;2.30;;;1.00;;
6053;SDS011;3055;50.886;14.814;2022-09-09T13:15:18;2.80;;;1.00;;
6053;SDS011;3055;50.886;14.814;2022-09-09T13:17:54;2.30;;;1.03;;
6053;SDS011;3055;50.886;14.814;2022-09-09T13:20:23;1.93;;;1.27;;
6053;SDS011;3055;50.886;14.814;2022-09-09T13:22:53;1.70;;;1.20;;
6053;SDS011;3055;50.886;14.814;2022-09-09T13:25:22;2.87;;;1.50;;
6053;SDS011;3055;50.886;14.814;2022-09-09T13:27:52;1.83;;;1.00;;
6053;SDS011;3055;50.886;14.814;2022-09-09T13:30:22;4.20;;;1.60;;
6053;SDS011;3055;50.886;14.814;2022-09-09T13:33:04;2.73;;;1.20;;
6053;SDS011;3055;50.886;14.814;2022-09-09T13:35:33;1.67;;;1.03;;
6053;SDS011;3055;50.886;14.814;2022-09-09T13:38:07;1.67;;;1.20;;
6053;SDS011;3055;50.886;14.814;2022-09-09T13:40:35;2.40;;;1.20;;
6053;SDS011;3055;50.886;14.814;2022-09-09T13:43:03;2.37;;;1.30;;
6053;SDS011;3055;50.886;14.814;2022-09-09T13:45:30;2.30;;;1.20;;
6053;SDS011;3055;50.886;14.814;2022-09-09T13:48:08;4.57;;;1.33;;
6053;SDS011;3055;50.886;14.814;2022-09-09T13:50:38;5.27;;;1.20;;
6053;SDS011;3055;50.886;14.814;2022-09-09T13:53:08;1.90;;;1.47;;
6053;SDS011;3055;50.886;14.814;2022-09-09T13:55:35;3.37;;;1.70;;
6053;SDS011;3055;50.886;14.814;2022-09-09T13:58:04;2.00;;;1.03;;
6053;SDS011;3055;50.886;14.814;2022-09-09T14:00:32;4.63;;;1.33;;
6053;SDS011;3055;50.886;14.814;2022-09-09T14:03:00;2.67;;;1.00;;
6053;SDS011;3055;50.886;14.814;2022-09-09T14:05:28;2.77;;;1.07;;
6053;SDS011;3055;50.886;14.814;2022-09-09T14:07:57;2.73;;;1.00;;
6053;SDS011;3055;50.886;14.814;2022-09-09T14:10:27;2.80;;;1.20;;
6053;SDS011;3055;50.886;14.814;2022-09-09T14:12:54;5.53;;;1.27;;
6053;SDS011;3055;50.886;14.814;2022-09-09T14:15:21;3.77;;;1.10;;
6053;SDS011;3055;50.886;14.814;2022-09-09T14:17:49;3.60;;;1.13;;
6053;SDS011;3055;50.886;14.814;2022-09-09T14:20:17;2.40;;;1.20;;
6053;SDS011;3055;50.886;14.814;2022-09-09T14:22:46;3.27;;;1.30;;
6053;SDS011;3055;50.886;14.814;2022-09-09T14:25:13;4.00;;;1.20;;
6053;SDS011;3055;50.886;14.814;2022-09-09T14:27:41;2.70;;;0.90;;
6053;SDS011;3055;50.886;14.814;2022-09-09T14:30:10;2.20;;;1.00;;
6053;SDS011;3055;50.886;14.814;2022-09-09T14:32:37;1.77;;;1.03;;
6053;SDS011;3055;50.886;14.814;2022-09-09T14:35:05;3.07;;;0.90;;
6053;SDS011;3055;50.886;14.814;2022-09-09T14:37:32;2.27;;;1.00;;
6053;SDS011;3055;50.886;14.814;2022-09-09T14:39:59;2.53;;;1.10;;
6053;SDS011;3055;50.886;14.814;2022-09-09T14:42:27;1.60;;;0.80;;
6053;SDS011;3055;50.886;14.814;2022-09-09T14:44:56;3.23;;;0.77;;
6053;SDS011;3055;50.886;14.814;2022-09-09T14:47:23;4.57;;;1.20;;
6053;SDS011;3055;50.886;14.814;2022-09-09T14:49:51;2.13;;;1.10;;
6053;SDS011;3055;50.886;14.814;2022-09-09T14:52:18;3.23;;;1.43;;
6053;SDS011;3055;50.886;14.814;2022-09-09T14:54:46;2.53;;;1.10;;
6053;SDS011;3055;50.886;14.814;2022-09-09T14:57:13;1.80;;;1.10;;
6053;SDS011;3055;50.886;14.814;2022-09-09T14:59:40;1.90;;;0.93;;
6053;SDS011;3055;50.886;14.814;2022-09-09T15:02:09;1.63;;;0.90;;
6053;SDS011;3055;50.886;14.814;2022-09-09T15:04:38;1.40;;;1.00;;
6053;SDS011;3055;50.886;14.814;2022-09-09T15:07:05;1.63;;;0.93;;
6053;SDS011;3055;50.886;14.814;2022-09-09T15:09:32;1.80;;;1.00;;
6053;SDS011;3055;50.886;14.814;2022-09-09T15:12:02;1.60;;;0.77;;
6053;SDS011;3055;50.886;14.814;2022-09-09T15:14:29;1.77;;;0.90;;
6053;SDS011;3055;50.886;14.814;2022-09-09T15:16:57;1.67;;;0.70;;
6053;SDS011;3055;50.886;14.814;2022-09-09T15:19:25;2.53;;;0.80;;
6053;SDS011;3055;50.886;14.814;2022-09-09T15:21:52;2.60;;;0.90;;
6053;SDS011;3055;50.886;14.814;2022-09-09T15:24:19;1.87;;;1.10;;
6053;SDS011;3055;50.886;14.814;2022-09-09T15:26:46;1.00;;;0.80;;
6053;SDS011;3055;50.886;14.814;2022-09-09T15:29:13;1.90;;;0.97;;
6053;SDS011;3055;50.886;14.814;2022-09-09T15:31:40;1.47;;;0.97;;
6053;SDS011;3055;50.886;14.814;2022-09-09T15:34:08;1.70;;;1.00;;
6053;SDS011;3055;50.886;14.814;2022-09-09T15:36:37;2.43;;;0.90;;
6053;SDS011;3055;50.886;14.814;2022-09-09T15:39:05;3.33;;;0.97;;